Дата Время Давление Темп. Влажн. Скор.ветра Напр.ветра Макс.ветер Осадки/час Осадки
10.12.19 16:00 743.9 3 94.3 2.4 199 4.5 0 0
10.12.19 15:00 744 2.9 94.1 2.4 196 5.4 0 0
10.12.19 14:00 743.7 2.8 94 2.5 199 5.9 0 0
10.12.19 13:00 743.7 2.8 93.8 2.3 197 5.9 0 0
10.12.19 12:00 743.8 2.8 93.6 2 191 5.2 0 0
10.12.19 11:00 743.9 2.9 92.4 2.8 199 4.9 0 0
10.12.19 10:00 743.7 2.9 92.2 2.7 196 4.8 0 0
10.12.19 09:00 743.6 3 93.1 2.2 199 4.1 0 0
10.12.19 08:00 743.2 2.8 93.9 1.9 193 4.2 0 0
10.12.19 07:00 742.9 2.6 93.5 1.9 203 3.9 0 0
10.12.19 06:00 742.5 2.9 92.6 1.7 192 5 0 0
10.12.19 05:00 742.1 2.8 92.6 2 200 5.1 0 0
10.12.19 04:00 741.6 2.8 92.7 2.3 197 4.8 0 0
10.12.19 03:00 741.3 2.7 92.2 2.5 197 5.7 0 0
10.12.19 02:00 740.9 2.8 90.4 2.7 197 5.9 0 0
10.12.19 01:00 740.7 3.2 87.5 2.4 196 6.1 0 0
10.12.19 00:00 740.3 3.2 88.1 2.8 193 7.1 0 0
09.12.19 23:00 739.8 3.3 87.1 3.2 199 7.3 0 0
09.12.19 22:00 739.5 3.4 85.7 2.2 208 8.4 0 0
09.12.19 21:00 739 3.4 85.5 2.8 197 6.7 0 0
09.12.19 20:00 738.7 3.4 86.1 3 204 7.5 0 0
09.12.19 19:00 738.4 3.7 85.6 3 198 7.7 0 0
09.12.19 18:00 738.2 3.9 84.3 2.9 204 7.7 0 0
09.12.19 17:00 737.7 4 82.9 3.4 202 9.1 0 0